sensor_id;sensor_type;location;lat;lon;timestamp;P1;durP1;ratioP1;P2;durP2;ratioP2
64199;SDS011;50516;52.272;5.136;2023-02-15T00:01:37;36.20;;;23.35;;
64199;SDS011;50516;52.272;5.136;2023-02-15T00:04:03;40.20;;;24.73;;
64199;SDS011;50516;52.272;5.136;2023-02-15T00:06:29;38.83;;;24.23;;
64199;SDS011;50516;52.272;5.136;2023-02-15T00:08:55;32.58;;;22.05;;
64199;SDS011;50516;52.272;5.136;2023-02-15T00:11:21;40.45;;;24.80;;
64199;SDS011;50516;52.272;5.136;2023-02-15T00:14:18;38.13;;;24.10;;
64199;SDS011;50516;52.272;5.136;2023-02-15T00:16:46;37.33;;;23.95;;
64199;SDS011;50516;52.272;5.136;2023-02-15T00:19:12;34.78;;;22.45;;
64199;SDS011;50516;52.272;5.136;2023-02-15T00:21:39;34.70;;;23.33;;
64199;SDS011;50516;52.272;5.136;2023-02-15T00:24:06;34.55;;;22.73;;
64199;SDS011;50516;52.272;5.136;2023-02-15T00:26:33;39.00;;;22.50;;
64199;SDS011;50516;52.272;5.136;2023-02-15T00:28:59;34.67;;;22.33;;
64199;SDS011;50516;52.272;5.136;2023-02-15T00:31:25;35.47;;;21.63;;
64199;SDS011;50516;52.272;5.136;2023-02-15T00:33:51;37.13;;;23.98;;
64199;SDS011;50516;52.272;5.136;2023-02-15T00:36:16;40.13;;;23.30;;
64199;SDS011;50516;52.272;5.136;2023-02-15T00:38:42;35.60;;;22.90;;
64199;SDS011;50516;52.272;5.136;2023-02-15T00:41:08;35.45;;;22.75;;
64199;SDS011;50516;52.272;5.136;2023-02-15T00:43:34;36.22;;;22.52;;
64199;SDS011;50516;52.272;5.136;2023-02-15T00:46:00;33.75;;;21.27;;
64199;SDS011;50516;52.272;5.136;2023-02-15T01:24:43;38.28;;;23.45;;
64199;SDS011;50516;52.272;5.136;2023-02-15T01:27:09;38.30;;;23.90;;
64199;SDS011;50516;52.272;5.136;2023-02-15T01:29:35;33.55;;;21.40;;
64199;SDS011;50516;52.272;5.136;2023-02-15T01:32:00;37.92;;;22.88;;
64199;SDS011;50516;52.272;5.136;2023-02-15T01:34:27;41.33;;;23.80;;
64199;SDS011;50516;52.272;5.136;2023-02-15T01:36:54;38.58;;;24.08;;
64199;SDS011;50516;52.272;5.136;2023-02-15T01:39:19;45.05;;;25.63;;
64199;SDS011;50516;52.272;5.136;2023-02-15T01:41:45;38.03;;;23.63;;
64199;SDS011;50516;52.272;5.136;2023-02-15T01:44:40;37.22;;;24.83;;
64199;SDS011;50516;52.272;5.136;2023-02-15T01:47:11;35.45;;;21.73;;
64199;SDS011;50516;52.272;5.136;2023-02-15T01:49:40;37.65;;;23.42;;
64199;SDS011;50516;52.272;5.136;2023-02-15T01:52:10;37.42;;;24.08;;
64199;SDS011;50516;52.272;5.136;2023-02-15T01:54:37;37.33;;;23.70;;
64199;SDS011;50516;52.272;5.136;2023-02-15T01:57:07;44.40;;;24.17;;
64199;SDS011;50516;52.272;5.136;2023-02-15T01:59:35;39.17;;;23.20;;
64199;SDS011;50516;52.272;5.136;2023-02-15T02:02:05;36.35;;;22.58;;
64199;SDS011;50516;52.272;5.136;2023-02-15T02:04:41;41.53;;;23.52;;
64199;SDS011;50516;52.272;5.136;2023-02-15T02:07:13;39.22;;;24.20;;
64199;SDS011;50516;52.272;5.136;2023-02-15T02:09:41;35.75;;;23.17;;
64199;SDS011;50516;52.272;5.136;2023-02-15T02:12:07;37.67;;;24.10;;
64199;SDS011;50516;52.272;5.136;2023-02-15T02:14:34;44.00;;;25.75;;
64199;SDS011;50516;52.272;5.136;2023-02-15T02:25:42;41.45;;;25.33;;
64199;SDS011;50516;52.272;5.136;2023-02-15T02:34:29;38.03;;;24.30;;
64199;SDS011;50516;52.272;5.136;2023-02-15T02:47:35;35.88;;;23.58;;
64199;SDS011;50516;52.272;5.136;2023-02-15T02:50:22;38.90;;;24.27;;
64199;SDS011;50516;52.272;5.136;2023-02-15T02:52:51;33.80;;;22.33;;
64199;SDS011;50516;52.272;5.136;2023-02-15T02:55:21;35.78;;;23.77;;
64199;SDS011;50516;52.272;5.136;2023-02-15T03:00:43;41.20;;;24.35;;
64199;SDS011;50516;52.272;5.136;2023-02-15T03:03:15;36.50;;;23.88;;
64199;SDS011;50516;52.272;5.136;2023-02-15T03:05:47;39.70;;;25.23;;
64199;SDS011;50516;52.272;5.136;2023-02-15T03:08:16;45.63;;;26.92;;
64199;SDS011;50516;52.272;5.136;2023-02-15T03:10:47;40.03;;;23.65;;
64199;SDS011;50516;52.272;5.136;2023-02-15T03:13:13;35.42;;;22.92;;
64199;SDS011;50516;52.272;5.136;2023-02-15T03:15:40;40.95;;;24.20;;
64199;SDS011;50516;52.272;5.136;2023-02-15T03:18:27;39.35;;;23.73;;
64199;SDS011;50516;52.272;5.136;2023-02-15T03:20:56;36.20;;;24.10;;
64199;SDS011;50516;52.272;5.136;2023-02-15T03:23:26;38.42;;;23.98;;
64199;SDS011;50516;52.272;5.136;2023-02-15T03:25:57;41.67;;;24.90;;
64199;SDS011;50516;52.272;5.136;2023-02-15T03:28:31;42.03;;;26.55;;
64199;SDS011;50516;52.272;5.136;2023-02-15T03:30:58;45.30;;;28.17;;
64199;SDS011;50516;52.272;5.136;2023-02-15T03:33:27;37.42;;;23.48;;
64199;SDS011;50516;52.272;5.136;2023-02-15T03:35:55;39.70;;;24.42;;
64199;SDS011;50516;52.272;5.136;2023-02-15T03:38:40;41.88;;;26.55;;
64199;SDS011;50516;52.272;5.136;2023-02-15T03:41:12;37.00;;;24.95;;
64199;SDS011;50516;52.272;5.136;2023-02-15T03:43:49;39.70;;;23.58;;
64199;SDS011;50516;52.272;5.136;2023-02-15T03:46:23;40.05;;;27.13;;
64199;SDS011;50516;52.272;5.136;2023-02-15T03:51:55;38.58;;;24.05;;
64199;SDS011;50516;52.272;5.136;2023-02-15T03:54:25;35.75;;;22.55;;
64199;SDS011;50516;52.272;5.136;2023-02-15T03:57:09;36.53;;;22.50;;
64199;SDS011;50516;52.272;5.136;2023-02-15T03:59:56;38.72;;;24.02;;
64199;SDS011;50516;52.272;5.136;2023-02-15T04:05:20;41.05;;;24.38;;
64199;SDS011;50516;52.272;5.136;2023-02-15T04:07:45;42.05;;;23.67;;
64199;SDS011;50516;52.272;5.136;2023-02-15T04:10:11;36.25;;;22.45;;
64199;SDS011;50516;52.272;5.136;2023-02-15T04:12:55;35.10;;;22.70;;
64199;SDS011;50516;52.272;5.136;2023-02-15T04:15:21;37.95;;;23.58;;
64199;SDS011;50516;52.272;5.136;2023-02-15T04:18:05;38.22;;;23.58;;
64199;SDS011;50516;52.272;5.136;2023-02-15T04:20:30;33.63;;;21.58;;
64199;SDS011;50516;52.272;5.136;2023-02-15T04:23:14;38.25;;;23.90;;
64199;SDS011;50516;52.272;5.136;2023-02-15T04:25:58;41.13;;;25.50;;
64199;SDS011;50516;52.272;5.136;2023-02-15T04:28:24;43.72;;;25.70;;
64199;SDS011;50516;52.272;5.136;2023-02-15T04:30:49;43.65;;;26.67;;
64199;SDS011;50516;52.272;5.136;2023-02-15T04:33:15;39.00;;;23.08;;
64199;SDS011;50516;52.272;5.136;2023-02-15T04:35:40;45.05;;;25.55;;
64199;SDS011;50516;52.272;5.136;2023-02-15T04:38:06;39.55;;;24.63;;
64199;SDS011;50516;52.272;5.136;2023-02-15T04:40:31;46.95;;;29.75;;
64199;SDS011;50516;52.272;5.136;2023-02-15T04:42:56;42.95;;;26.60;;
64199;SDS011;50516;52.272;5.136;2023-02-15T04:45:22;43.40;;;27.13;;
64199;SDS011;50516;52.272;5.136;2023-02-15T04:47:47;45.55;;;27.77;;
64199;SDS011;50516;52.272;5.136;2023-02-15T04:50:13;49.05;;;28.27;;
64199;SDS011;50516;52.272;5.136;2023-02-15T04:52:38;44.67;;;26.55;;
64199;SDS011;50516;52.272;5.136;2023-02-15T04:55:04;56.90;;;30.60;;
64199;SDS011;50516;52.272;5.136;2023-02-15T04:57:29;53.95;;;28.00;;
64199;SDS011;50516;52.272;5.136;2023-02-15T04:59:55;43.03;;;26.70;;
64199;SDS011;50516;52.272;5.136;2023-02-15T05:02:20;46.25;;;27.48;;
64199;SDS011;50516;52.272;5.136;2023-02-15T05:04:45;44.72;;;27.40;;
64199;SDS011;50516;52.272;5.136;2023-02-15T05:07:11;44.72;;;26.77;;
64199;SDS011;50516;52.272;5.136;2023-02-15T05:09:36;47.22;;;28.05;;
64199;SDS011;50516;52.272;5.136;2023-02-15T05:12:02;44.08;;;24.85;;
64199;SDS011;50516;52.272;5.136;2023-02-15T05:14:27;42.97;;;25.42;;
64199;SDS011;50516;52.272;5.136;2023-02-15T05:16:52;38.45;;;24.70;;
64199;SDS011;50516;52.272;5.136;2023-02-15T05:19:19;44.10;;;25.52;;
64199;SDS011;50516;52.272;5.136;2023-02-15T05:21:44;42.00;;;25.23;;
64199;SDS011;50516;52.272;5.136;2023-02-15T05:24:10;46.00;;;27.27;;
64199;SDS011;50516;52.272;5.136;2023-02-15T05:26:54;51.50;;;28.35;;
64199;SDS011;50516;52.272;5.136;2023-02-15T05:29:38;42.90;;;25.88;;
64199;SDS011;50516;52.272;5.136;2023-02-15T05:32:03;50.92;;;28.65;;
64199;SDS011;50516;52.272;5.136;2023-02-15T05:34:29;44.08;;;27.25;;
64199;SDS011;50516;52.272;5.136;2023-02-15T05:36:54;49.63;;;27.15;;
64199;SDS011;50516;52.272;5.136;2023-02-15T05:39:20;49.95;;;29.05;;
64199;SDS011;50516;52.272;5.136;2023-02-15T05:41:45;44.40;;;26.25;;
64199;SDS011;50516;52.272;5.136;2023-02-15T05:44:10;48.13;;;28.20;;
64199;SDS011;50516;52.272;5.136;2023-02-15T05:46:36;45.90;;;26.67;;
64199;SDS011;50516;52.272;5.136;2023-02-15T05:49:01;46.63;;;26.75;;
64199;SDS011;50516;52.272;5.136;2023-02-15T05:51:26;46.08;;;28.27;;
64199;SDS011;50516;52.272;5.136;2023-02-15T05:53:52;49.95;;;26.10;;
64199;SDS011;50516;52.272;5.136;2023-02-15T05:56:17;47.65;;;27.67;;
64199;SDS011;50516;52.272;5.136;2023-02-15T05:58:43;38.15;;;24.27;;
64199;SDS011;50516;52.272;5.136;2023-02-15T06:01:09;46.45;;;27.30;;
64199;SDS011;50516;52.272;5.136;2023-02-15T06:03:35;50.65;;;27.33;;
64199;SDS011;50516;52.272;5.136;2023-02-15T06:06:01;46.45;;;25.42;;
64199;SDS011;50516;52.272;5.136;2023-02-15T06:08:27;45.03;;;27.38;;
64199;SDS011;50516;52.272;5.136;2023-02-15T06:10:52;47.13;;;27.52;;
64199;SDS011;50516;52.272;5.136;2023-02-15T06:13:18;41.28;;;25.73;;
64199;SDS011;50516;52.272;5.136;2023-02-15T06:15:43;38.47;;;25.05;;
64199;SDS011;50516;52.272;5.136;2023-02-15T06:18:09;44.17;;;25.02;;
64199;SDS011;50516;52.272;5.136;2023-02-15T06:20:34;47.55;;;26.55;;
64199;SDS011;50516;52.272;5.136;2023-02-15T06:22:59;46.40;;;25.08;;
64199;SDS011;50516;52.272;5.136;2023-02-15T06:25:25;44.67;;;26.40;;
64199;SDS011;50516;52.272;5.136;2023-02-15T06:27:50;46.42;;;26.63;;
64199;SDS011;50516;52.272;5.136;2023-02-15T06:30:15;45.83;;;26.02;;
64199;SDS011;50516;52.272;5.136;2023-02-15T06:32:41;41.88;;;26.23;;
64199;SDS011;50516;52.272;5.136;2023-02-15T06:35:06;44.97;;;25.92;;
64199;SDS011;50516;52.272;5.136;2023-02-15T06:37:32;46.88;;;26.65;;
64199;SDS011;50516;52.272;5.136;2023-02-15T06:39:57;42.40;;;25.33;;
64199;SDS011;50516;52.272;5.136;2023-02-15T06:42:23;45.83;;;25.52;;
64199;SDS011;50516;52.272;5.136;2023-02-15T06:44:48;42.17;;;25.80;;
64199;SDS011;50516;52.272;5.136;2023-02-15T06:47:14;43.45;;;26.08;;
64199;SDS011;50516;52.272;5.136;2023-02-15T06:49:39;43.30;;;23.77;;
64199;SDS011;50516;52.272;5.136;2023-02-15T06:52:04;49.85;;;28.00;;
64199;SDS011;50516;52.272;5.136;2023-02-15T06:54:30;50.75;;;26.67;;
64199;SDS011;50516;52.272;5.136;2023-02-15T06:56:55;44.10;;;25.27;;
64199;SDS011;50516;52.272;5.136;2023-02-15T06:59:21;42.05;;;25.30;;
64199;SDS011;50516;52.272;5.136;2023-02-15T07:01:46;42.85;;;23.92;;
64199;SDS011;50516;52.272;5.136;2023-02-15T07:04:11;45.20;;;25.75;;
64199;SDS011;50516;52.272;5.136;2023-02-15T07:06:37;45.35;;;25.65;;
64199;SDS011;50516;52.272;5.136;2023-02-15T07:09:02;48.50;;;25.90;;
64199;SDS011;50516;52.272;5.136;2023-02-15T07:11:29;44.75;;;26.02;;
64199;SDS011;50516;52.272;5.136;2023-02-15T07:14:13;42.90;;;24.60;;
64199;SDS011;50516;52.272;5.136;2023-02-15T07:16:39;46.58;;;28.10;;
64199;SDS011;50516;52.272;5.136;2023-02-15T07:19:04;43.85;;;24.48;;
64199;SDS011;50516;52.272;5.136;2023-02-15T07:21:29;44.30;;;26.95;;
64199;SDS011;50516;52.272;5.136;2023-02-15T07:23:56;41.83;;;25.58;;
64199;SDS011;50516;52.272;5.136;2023-02-15T07:26:22;44.65;;;26.48;;
64199;SDS011;50516;52.272;5.136;2023-02-15T07:28:48;44.00;;;25.98;;
64199;SDS011;50516;52.272;5.136;2023-02-15T07:31:13;46.30;;;27.00;;
64199;SDS011;50516;52.272;5.136;2023-02-15T07:33:39;39.63;;;25.15;;
64199;SDS011;50516;52.272;5.136;2023-02-15T07:36:05;41.83;;;25.40;;
64199;SDS011;50516;52.272;5.136;2023-02-15T07:38:34;40.13;;;24.50;;
64199;SDS011;50516;52.272;5.136;2023-02-15T07:41:01;37.90;;;24.40;;
64199;SDS011;50516;52.272;5.136;2023-02-15T07:43:28;37.95;;;23.83;;
64199;SDS011;50516;52.272;5.136;2023-02-15T07:45:54;41.72;;;25.75;;
64199;SDS011;50516;52.272;5.136;2023-02-15T07:48:23;38.25;;;25.55;;
64199;SDS011;50516;52.272;5.136;2023-02-15T07:50:48;40.90;;;26.05;;
64199;SDS011;50516;52.272;5.136;2023-02-15T07:53:14;48.88;;;27.80;;
64199;SDS011;50516;52.272;5.136;2023-02-15T07:55:39;44.78;;;27.23;;
64199;SDS011;50516;52.272;5.136;2023-02-15T07:58:04;47.05;;;26.90;;
64199;SDS011;50516;52.272;5.136;2023-02-15T08:00:30;47.15;;;27.92;;
64199;SDS011;50516;52.272;5.136;2023-02-15T08:03:15;46.00;;;27.60;;
64199;SDS011;50516;52.272;5.136;2023-02-15T08:05:41;49.22;;;27.48;;
64199;SDS011;50516;52.272;5.136;2023-02-15T08:08:10;42.03;;;26.48;;
64199;SDS011;50516;52.272;5.136;2023-02-15T08:10:58;45.22;;;27.88;;
64199;SDS011;50516;52.272;5.136;2023-02-15T08:13:50;46.35;;;27.63;;
64199;SDS011;50516;52.272;5.136;2023-02-15T08:18:45;46.92;;;26.40;;
64199;SDS011;50516;52.272;5.136;2023-02-15T08:21:10;43.28;;;27.05;;
64199;SDS011;50516;52.272;5.136;2023-02-15T08:23:35;44.45;;;28.33;;
64199;SDS011;50516;52.272;5.136;2023-02-15T08:26:01;46.83;;;28.88;;
64199;SDS011;50516;52.272;5.136;2023-02-15T08:28:26;46.22;;;29.42;;
64199;SDS011;50516;52.272;5.136;2023-02-15T08:30:51;45.50;;;28.70;;
64199;SDS011;50516;52.272;5.136;2023-02-15T08:33:17;44.58;;;28.83;;
64199;SDS011;50516;52.272;5.136;2023-02-15T08:35:43;57.78;;;29.70;;
64199;SDS011;50516;52.272;5.136;2023-02-15T08:38:08;46.20;;;28.55;;
64199;SDS011;50516;52.272;5.136;2023-02-15T08:40:33;49.95;;;30.63;;
64199;SDS011;50516;52.272;5.136;2023-02-15T08:42:59;50.13;;;30.40;;
64199;SDS011;50516;52.272;5.136;2023-02-15T08:45:25;51.13;;;30.25;;
64199;SDS011;50516;52.272;5.136;2023-02-15T08:47:50;52.78;;;31.63;;
64199;SDS011;50516;52.272;5.136;2023-02-15T08:50:16;48.40;;;30.02;;
64199;SDS011;50516;52.272;5.136;2023-02-15T08:52:41;48.88;;;29.20;;
64199;SDS011;50516;52.272;5.136;2023-02-15T08:55:06;53.47;;;31.42;;
64199;SDS011;50516;52.272;5.136;2023-02-15T08:57:32;56.70;;;31.92;;
64199;SDS011;50516;52.272;5.136;2023-02-15T08:59:57;47.70;;;32.78;;
64199;SDS011;50516;52.272;5.136;2023-02-15T09:02:22;49.38;;;30.77;;
64199;SDS011;50516;52.272;5.136;2023-02-15T09:04:48;52.35;;;29.65;;
64199;SDS011;50516;52.272;5.136;2023-02-15T09:07:13;50.10;;;31.55;;
64199;SDS011;50516;52.272;5.136;2023-02-15T09:09:38;54.35;;;32.03;;
64199;SDS011;50516;52.272;5.136;2023-02-15T09:12:04;49.03;;;30.63;;
64199;SDS011;50516;52.272;5.136;2023-02-15T09:14:29;50.03;;;30.35;;
64199;SDS011;50516;52.272;5.136;2023-02-15T09:16:55;53.78;;;30.83;;
64199;SDS011;50516;52.272;5.136;2023-02-15T09:19:21;47.00;;;30.88;;
64199;SDS011;50516;52.272;5.136;2023-02-15T09:21:48;47.25;;;29.77;;
64199;SDS011;50516;52.272;5.136;2023-02-15T09:24:14;48.15;;;29.63;;
64199;SDS011;50516;52.272;5.136;2023-02-15T09:26:41;51.70;;;29.23;;
64199;SDS011;50516;52.272;5.136;2023-02-15T09:29:08;47.63;;;30.20;;
64199;SDS011;50516;52.272;5.136;2023-02-15T09:31:42;53.20;;;32.13;;
64199;SDS011;50516;52.272;5.136;2023-02-15T09:34:10;49.45;;;29.67;;
64199;SDS011;50516;52.272;5.136;2023-02-15T09:36:38;48.70;;;31.33;;
64199;SDS011;50516;52.272;5.136;2023-02-15T09:49:50;44.05;;;27.38;;
64199;SDS011;50516;52.272;5.136;2023-02-15T10:00:31;45.40;;;27.55;;
64199;SDS011;50516;52.272;5.136;2023-02-15T10:06:18;42.30;;;27.85;;
64199;SDS011;50516;52.272;5.136;2023-02-15T10:11:44;48.75;;;29.05;;
64199;SDS011;50516;52.272;5.136;2023-02-15T10:22:52;45.05;;;30.27;;
64199;SDS011;50516;52.272;5.136;2023-02-15T10:25:43;47.00;;;29.75;;
64199;SDS011;50516;52.272;5.136;2023-02-15T10:28:16;45.25;;;28.90;;
64199;SDS011;50516;52.272;5.136;2023-02-15T10:44:00;49.03;;;30.73;;
64199;SDS011;50516;52.272;5.136;2023-02-15T10:46:46;45.05;;;27.67;;
64199;SDS011;50516;52.272;5.136;2023-02-15T10:55:10;48.33;;;29.52;;
64199;SDS011;50516;52.272;5.136;2023-02-15T11:00:27;45.83;;;28.50;;
64199;SDS011;50516;52.272;5.136;2023-02-15T11:03:24;45.78;;;28.00;;
64199;SDS011;50516;52.272;5.136;2023-02-15T11:08:39;44.63;;;27.73;;
64199;SDS011;50516;52.272;5.136;2023-02-15T11:11:09;44.03;;;28.20;;
64199;SDS011;50516;52.272;5.136;2023-02-15T11:13:42;44.10;;;28.65;;
64199;SDS011;50516;52.272;5.136;2023-02-15T11:19:29;47.72;;;28.67;;
64199;SDS011;50516;52.272;5.136;2023-02-15T11:21:40;44.35;;;29.30;;
64199;SDS011;50516;52.272;5.136;2023-02-15T11:24:09;46.13;;;27.95;;
64199;SDS011;50516;52.272;5.136;2023-02-15T11:26:38;45.13;;;28.00;;
64199;SDS011;50516;52.272;5.136;2023-02-15T11:34:12;50.88;;;30.15;;
64199;SDS011;50516;52.272;5.136;2023-02-15T11:36:43;48.70;;;28.15;;
64199;SDS011;50516;52.272;5.136;2023-02-15T11:39:15;51.95;;;29.90;;
64199;SDS011;50516;52.272;5.136;2023-02-15T11:41:45;48.47;;;31.75;;
64199;SDS011;50516;52.272;5.136;2023-02-15T11:46:51;52.22;;;32.17;;
64199;SDS011;50516;52.272;5.136;2023-02-15T11:51:54;53.25;;;29.95;;
64199;SDS011;50516;52.272;5.136;2023-02-15T11:54:26;47.42;;;29.63;;
64199;SDS011;50516;52.272;5.136;2023-02-15T11:56:58;51.38;;;30.02;;
64199;SDS011;50516;52.272;5.136;2023-02-15T11:59:31;50.03;;;30.65;;
64199;SDS011;50516;52.272;5.136;2023-02-15T12:01:59;52.30;;;31.38;;
64199;SDS011;50516;52.272;5.136;2023-02-15T12:04:33;55.33;;;32.10;;
64199;SDS011;50516;52.272;5.136;2023-02-15T12:07:13;47.13;;;30.92;;
64199;SDS011;50516;52.272;5.136;2023-02-15T12:13:08;53.10;;;32.25;;
64199;SDS011;50516;52.272;5.136;2023-02-15T12:15:33;51.17;;;34.33;;
64199;SDS011;50516;52.272;5.136;2023-02-15T12:18:00;49.97;;;30.67;;
64199;SDS011;50516;52.272;5.136;2023-02-15T12:20:28;55.58;;;32.47;;
64199;SDS011;50516;52.272;5.136;2023-02-15T12:25:58;47.17;;;30.05;;
64199;SDS011;50516;52.272;5.136;2023-02-15T12:30:52;55.30;;;32.72;;
64199;SDS011;50516;52.272;5.136;2023-02-15T12:36:01;49.00;;;32.15;;
64199;SDS011;50516;52.272;5.136;2023-02-15T12:38:35;53.38;;;33.28;;
64199;SDS011;50516;52.272;5.136;2023-02-15T12:41:02;52.67;;;32.60;;
64199;SDS011;50516;52.272;5.136;2023-02-15T12:43:46;54.55;;;33.50;;
64199;SDS011;50516;52.272;5.136;2023-02-15T12:46:22;46.72;;;32.75;;
64199;SDS011;50516;52.272;5.136;2023-02-15T12:49:06;54.08;;;33.13;;
64199;SDS011;50516;52.272;5.136;2023-02-15T12:51:48;52.00;;;33.70;;
64199;SDS011;50516;52.272;5.136;2023-02-15T12:56:49;53.75;;;33.85;;
64199;SDS011;50516;52.272;5.136;2023-02-15T12:59:14;51.97;;;33.67;;
64199;SDS011;50516;52.272;5.136;2023-02-15T13:01:45;55.35;;;33.38;;
64199;SDS011;50516;52.272;5.136;2023-02-15T13:04:18;59.03;;;34.40;;
64199;SDS011;50516;52.272;5.136;2023-02-15T13:06:52;51.50;;;35.33;;
64199;SDS011;50516;52.272;5.136;2023-02-15T13:09:20;54.72;;;33.33;;
64199;SDS011;50516;52.272;5.136;2023-02-15T13:12:08;54.58;;;33.97;;
64199;SDS011;50516;52.272;5.136;2023-02-15T13:14:51;51.00;;;33.63;;
64199;SDS011;50516;52.272;5.136;2023-02-15T13:17:32;54.47;;;36.28;;
64199;SDS011;50516;52.272;5.136;2023-02-15T13:20:06;51.85;;;33.42;;
64199;SDS011;50516;52.272;5.136;2023-02-15T13:22:43;57.58;;;35.10;;
64199;SDS011;50516;52.272;5.136;2023-02-15T13:25:13;54.75;;;36.33;;
64199;SDS011;50516;52.272;5.136;2023-02-15T13:27:43;60.22;;;36.55;;
64199;SDS011;50516;52.272;5.136;2023-02-15T13:30:13;52.45;;;36.08;;
64199;SDS011;50516;52.272;5.136;2023-02-15T13:32:48;56.88;;;36.33;;
64199;SDS011;50516;52.272;5.136;2023-02-15T13:35:16;57.55;;;34.70;;
64199;SDS011;50516;52.272;5.136;2023-02-15T13:40:40;61.95;;;37.28;;
64199;SDS011;50516;52.272;5.136;2023-02-15T14:00:21;56.20;;;36.25;;
64199;SDS011;50516;52.272;5.136;2023-02-15T14:03:00;56.22;;;36.42;;
64199;SDS011;50516;52.272;5.136;2023-02-15T14:17:03;61.08;;;35.80;;
64199;SDS011;50516;52.272;5.136;2023-02-15T14:19:48;57.58;;;35.60;;
64199;SDS011;50516;52.272;5.136;2023-02-15T14:30:25;65.80;;;36.25;;
64199;SDS011;50516;52.272;5.136;2023-02-15T14:33:01;56.35;;;36.42;;
64199;SDS011;50516;52.272;5.136;2023-02-15T14:35:30;58.17;;;36.60;;
64199;SDS011;50516;52.272;5.136;2023-02-15T14:38:13;56.33;;;35.83;;
64199;SDS011;50516;52.272;5.136;2023-02-15T14:40:56;54.53;;;35.00;;
64199;SDS011;50516;52.272;5.136;2023-02-15T14:48:56;59.28;;;34.92;;
64199;SDS011;50516;52.272;5.136;2023-02-15T14:54:07;50.70;;;33.80;;
64199;SDS011;50516;52.272;5.136;2023-02-15T14:59:26;52.17;;;33.97;;
64199;SDS011;50516;52.272;5.136;2023-02-15T15:04:35;49.33;;;33.15;;
64199;SDS011;50516;52.272;5.136;2023-02-15T15:09:29;57.20;;;34.85;;
64199;SDS011;50516;52.272;5.136;2023-02-15T15:14:48;55.88;;;36.80;;
64199;SDS011;50516;52.272;5.136;2023-02-15T15:20:11;57.40;;;35.22;;
64199;SDS011;50516;52.272;5.136;2023-02-15T15:22:39;56.47;;;35.95;;
64199;SDS011;50516;52.272;5.136;2023-02-15T15:27:48;54.83;;;38.13;;
64199;SDS011;50516;52.272;5.136;2023-02-15T15:32:49;61.00;;;38.53;;
64199;SDS011;50516;52.272;5.136;2023-02-15T15:35:34;65.30;;;40.28;;
64199;SDS011;50516;52.272;5.136;2023-02-15T15:49:08;60.90;;;36.47;;
64199;SDS011;50516;52.272;5.136;2023-02-15T15:51:39;56.92;;;36.42;;
64199;SDS011;50516;52.272;5.136;2023-02-15T15:54:11;63.60;;;38.70;;
64199;SDS011;50516;52.272;5.136;2023-02-15T15:56:40;59.65;;;37.58;;
64199;SDS011;50516;52.272;5.136;2023-02-15T15:59:12;60.90;;;38.38;;
64199;SDS011;50516;52.272;5.136;2023-02-15T16:01:44;59.63;;;36.75;;
64199;SDS011;50516;52.272;5.136;2023-02-15T16:04:13;67.43;;;39.25;;
64199;SDS011;50516;52.272;5.136;2023-02-15T16:06:47;56.55;;;37.65;;
64199;SDS011;50516;52.272;5.136;2023-02-15T16:09:15;57.20;;;37.40;;
64199;SDS011;50516;52.272;5.136;2023-02-15T16:11:52;54.85;;;35.63;;
64199;SDS011;50516;52.272;5.136;2023-02-15T16:14:26;63.65;;;37.88;;
64199;SDS011;50516;52.272;5.136;2023-02-15T16:16:54;58.75;;;36.90;;
64199;SDS011;50516;52.272;5.136;2023-02-15T16:19:35;55.78;;;35.45;;
64199;SDS011;50516;52.272;5.136;2023-02-15T16:22:03;55.40;;;37.47;;
64199;SDS011;50516;52.272;5.136;2023-02-15T16:24:38;62.40;;;37.38;;
64199;SDS011;50516;52.272;5.136;2023-02-15T16:30:25;58.97;;;38.70;;
64199;SDS011;50516;52.272;5.136;2023-02-15T16:32:55;62.90;;;37.87;;
64199;SDS011;50516;52.272;5.136;2023-02-15T16:35:29;64.32;;;39.58;;
64199;SDS011;50516;52.272;5.136;2023-02-15T16:37:55;62.70;;;39.00;;
64199;SDS011;50516;52.272;5.136;2023-02-15T16:42:52;67.07;;;38.58;;
64199;SDS011;50516;52.272;5.136;2023-02-15T16:45:22;57.92;;;36.13;;
64199;SDS011;50516;52.272;5.136;2023-02-15T16:47:52;60.63;;;38.45;;
64199;SDS011;50516;52.272;5.136;2023-02-15T16:50:22;62.08;;;38.33;;
64199;SDS011;50516;52.272;5.136;2023-02-15T16:52:51;71.10;;;40.00;;
64199;SDS011;50516;52.272;5.136;2023-02-15T16:55:21;64.03;;;38.00;;
64199;SDS011;50516;52.272;5.136;2023-02-15T16:57:49;64.97;;;37.95;;
64199;SDS011;50516;52.272;5.136;2023-02-15T17:00:20;60.72;;;38.17;;
64199;SDS011;50516;52.272;5.136;2023-02-15T17:02:54;62.03;;;37.45;;
64199;SDS011;50516;52.272;5.136;2023-02-15T17:05:23;59.28;;;38.80;;
64199;SDS011;50516;52.272;5.136;2023-02-15T17:10:40;57.30;;;37.97;;
64199;SDS011;50516;52.272;5.136;2023-02-15T17:13:16;59.40;;;39.25;;
64199;SDS011;50516;52.272;5.136;2023-02-15T17:16:22;60.53;;;37.78;;
64199;SDS011;50516;52.272;5.136;2023-02-15T17:18:38;62.08;;;35.72;;
64199;SDS011;50516;52.272;5.136;2023-02-15T17:21:13;59.75;;;37.75;;
64199;SDS011;50516;52.272;5.136;2023-02-15T17:28:50;57.70;;;37.47;;
64199;SDS011;50516;52.272;5.136;2023-02-15T17:31:18;66.40;;;39.00;;
64199;SDS011;50516;52.272;5.136;2023-02-15T17:33:45;60.55;;;37.58;;
64199;SDS011;50516;52.272;5.136;2023-02-15T17:36:13;65.63;;;38.08;;
64199;SDS011;50516;52.272;5.136;2023-02-15T17:41:33;62.50;;;38.08;;
64199;SDS011;50516;52.272;5.136;2023-02-15T17:44:01;60.60;;;37.10;;
64199;SDS011;50516;52.272;5.136;2023-02-15T17:46:34;66.78;;;37.72;;
64199;SDS011;50516;52.272;5.136;2023-02-15T17:49:02;62.78;;;36.13;;
64199;SDS011;50516;52.272;5.136;2023-02-15T17:51:28;66.57;;;39.75;;
64199;SDS011;50516;52.272;5.136;2023-02-15T17:53:54;62.05;;;37.38;;
64199;SDS011;50516;52.272;5.136;2023-02-15T17:56:38;67.57;;;39.05;;
64199;SDS011;50516;52.272;5.136;2023-02-15T17:59:04;62.20;;;39.13;;
64199;SDS011;50516;52.272;5.136;2023-02-15T18:01:33;64.82;;;37.70;;
64199;SDS011;50516;52.272;5.136;2023-02-15T18:04:18;62.22;;;38.92;;
64199;SDS011;50516;52.272;5.136;2023-02-15T18:07:03;62.42;;;40.33;;
64199;SDS011;50516;52.272;5.136;2023-02-15T18:09:47;62.13;;;38.65;;
64199;SDS011;50516;52.272;5.136;2023-02-15T18:12:33;62.95;;;38.85;;
64199;SDS011;50516;52.272;5.136;2023-02-15T18:15:00;63.55;;;39.75;;
64199;SDS011;50516;52.272;5.136;2023-02-15T18:17:33;60.95;;;36.92;;
64199;SDS011;50516;52.272;5.136;2023-02-15T18:20:01;63.40;;;37.35;;
64199;SDS011;50516;52.272;5.136;2023-02-15T18:22:30;53.47;;;35.40;;
64199;SDS011;50516;52.272;5.136;2023-02-15T18:24:56;67.55;;;39.90;;
64199;SDS011;50516;52.272;5.136;2023-02-15T18:27:22;63.28;;;36.67;;
64199;SDS011;50516;52.272;5.136;2023-02-15T18:29:48;65.00;;;37.13;;
64199;SDS011;50516;52.272;5.136;2023-02-15T18:32:23;61.70;;;37.85;;
64199;SDS011;50516;52.272;5.136;2023-02-15T18:34:55;59.10;;;37.90;;
64199;SDS011;50516;52.272;5.136;2023-02-15T18:37:22;58.45;;;35.55;;
64199;SDS011;50516;52.272;5.136;2023-02-15T18:39:50;60.15;;;36.75;;
64199;SDS011;50516;52.272;5.136;2023-02-15T18:44:46;57.83;;;35.05;;
64199;SDS011;50516;52.272;5.136;2023-02-15T18:47:13;54.25;;;36.17;;
64199;SDS011;50516;52.272;5.136;2023-02-15T18:49:38;58.53;;;35.42;;
64199;SDS011;50516;52.272;5.136;2023-02-15T18:52:03;59.03;;;36.08;;